Ana Sayfa
METAR-TAF:

METAR-TAF

Havaalanları :

Columbus Municipal Airport

Columbus, Nebraska, Amerika Birleşik Devletleri

Enlem: 41-27N, Boylam: 097-20W, yükseklik: 440 m

Güncel hava durumu gözlemi

Rapor saat 16:56 UTC de 1 saat ve 8 dakika önce yapıldı.
Rüzgar güneybatıdan 13 kt ve 20 kt'a kadar ani rüzgarlar
Sıcaklık 29°C
Nem 66%
Basınç 1007 hPa
Görüş mesafesi: 16.1 km
3000 ft yükseklikte az bulutlu

METAR: KOLU 161656Z AUTO 22013G20KT 10SM FEW030 29/22 A2973 RMK AO2 SLP054 T02940217

Saat: 13:04 (18:04 UTC)


TAF: eksik

4.000'den fazla havaalanı için hava durumu gözlemleri ve tahminleri (METAR ve TAF raporları).

Kullanılabilir istasyonlar harita üzerinde sarı ve kırmızı noktalarla gösterilir.

İstasyonun adını görmek için fareyi noktanın üzerinde gezdirin.

Sonrasında hava gözlem ve tahminlerini görmek için tıklayın.

Haritayı değiştirmek için: yaklaştırmak için siyah artı işaretli yeşil düğmeye ve uzaklaştırmak için de eksi işaretli düğmeye hızla tıklayın; bitişik haritalar için yeşil okları kullanın.


METAR-TAF: